Time;durP1;ratioP1;P1;durP2;ratioP2;P2;SDS_P1;SDS_P2;PMS_P1;PMS_P2;Temp;Humidity;BMP_temperature;BMP_pressure;BME280_temperature;BME280_humidity;BME280_pressure;Samples;Min_cycle;Max_cycle;Signal;HPM_P1;HPM_P2
2022/09/03 00:00:04;;;;;;;1.60;1.50;;;14.10;99.90;;;;;;5113656;27;20212;-69
2022/09/03 00:02:38;;;;;;;3.17;1.87;;;13.90;99.90;;;;;;5116056;27;20204;-68
2022/09/03 00:05:10;;;;;;;4.33;1.90;;;14.00;99.90;;;;;;5127525;27;20208;-69
2022/09/03 00:07:45;;;;;;;3.63;1.67;;;14.10;99.90;;;;;;5133774;27;20194;-69
2022/09/03 00:10:19;;;;;;;5.80;2.10;;;14.20;99.90;;;;;;5092563;28;20297;-69
2022/09/03 00:12:47;;;;;;;2.27;1.87;;;14.20;99.90;;;;;;5106371;27;20215;-69
2022/09/03 00:15:17;;;;;;;2.73;1.70;;;14.30;99.90;;;;;;5119996;27;20680;-69
2022/09/03 00:17:47;;;;;;;4.17;2.60;;;14.30;99.90;;;;;;5114447;27;20224;-69
2022/09/03 00:20:18;;;;;;;4.63;2.13;;;14.20;99.90;;;;;;5129705;27;20597;-69
2022/09/03 00:22:51;;;;;;;4.70;2.03;;;14.30;99.90;;;;;;5108345;27;20199;-68
2022/09/03 00:25:24;;;;;;;4.10;2.53;;;14.20;99.90;;;;;;5113466;28;20201;-68
2022/09/03 00:27:55;;;;;;;3.70;1.70;;;14.20;99.90;;;;;;5095984;28;20212;-68
2022/09/03 00:30:24;;;;;;;1.57;1.47;;;14.20;99.90;;;;;;5102010;27;20212;-68
2022/09/03 00:32:56;;;;;;;4.63;1.90;;;14.10;99.90;;;;;;5114132;27;20224;-68
2022/09/03 00:35:27;;;;;;;3.37;1.70;;;13.90;99.90;;;;;;5107238;27;20209;-68
2022/09/03 00:37:56;;;;;;;3.27;2.00;;;14.00;99.90;;;;;;5117388;27;20229;-68
2022/09/03 00:40:47;;;;;;;7.83;2.27;;;14.00;99.90;;;;;;5115151;27;20200;-68
2022/09/03 00:43:31;;;;;;;4.90;2.17;;;14.00;99.90;;;;;;5123602;27;20192;-68
2022/09/03 00:46:07;;;;;;;11.30;2.30;;;14.00;99.90;;;;;;5099882;27;20642;-68
2022/09/03 00:48:47;;;;;;;3.50;2.20;;;13.90;99.90;;;;;;5123781;27;20207;-68
2022/09/03 00:51:24;;;;;;;2.93;2.30;;;13.80;99.90;;;;;;5113866;27;20639;-68
2022/09/03 00:54:00;;;;;;;3.83;2.50;;;13.60;99.90;;;;;;5116679;27;20215;-68
2022/09/03 00:56:35;;;;;;;5.37;3.70;;;13.20;99.90;;;;;;5103373;28;20204;-68
2022/09/03 00:59:13;;;;;;;12.33;4.60;;;12.90;99.90;;;;;;5126632;27;20198;-68
2022/09/03 01:01:49;;;;;;;8.27;4.47;;;12.50;99.90;;;;;;5121684;27;20291;-68
2022/09/03 01:04:35;;;;;;;5.67;3.07;;;12.30;1.00;;;;;;5098935;28;20208;-68
2022/09/03 01:07:09;;;;;;;8.43;4.30;;;12.40;1.00;;;;;;5113916;27;20193;-68
2022/09/03 01:09:49;;;;;;;6.27;3.13;;;12.50;1.00;;;;;;5114442;27;20577;-68
2022/09/03 01:12:28;;;;;;;6.10;2.40;;;12.50;1.00;;;;;;5109332;28;20204;-68
2022/09/03 01:15:03;;;;;;;4.40;2.40;;;12.60;99.90;;;;;;5113522;27;20547;-68
2022/09/03 01:17:43;;;;;;;2.27;1.83;;;13.10;1.00;;;;;;5109724;28;20231;-68
2022/09/03 01:20:23;;;;;;;2.00;1.80;;;13.30;99.90;;;;;;5132175;27;20202;-68
2022/09/03 01:23:34;;;;;;;3.53;2.10;;;13.50;99.90;;;;;;5105178;28;20632;-68
2022/09/03 01:26:16;;;;;;;3.73;2.23;;;13.40;99.90;;;;;;5092636;28;20245;-68
2022/09/03 01:28:55;;;;;;;2.27;2.00;;;13.20;99.90;;;;;;5099372;27;20197;-68
2022/09/03 01:31:34;;;;;;;4.10;2.00;;;13.30;99.90;;;;;;5133585;27;20208;-68
2022/09/03 01:34:10;;;;;;;5.63;2.73;;;13.20;1.00;;;;;;5116295;27;20266;-68
2022/09/03 01:36:45;;;;;;;2.70;2.03;;;12.60;99.90;;;;;;5121422;27;20210;-68
2022/09/03 01:39:17;;;;;;;2.63;2.43;;;12.80;1.00;;;;;;5122498;27;20196;-68
2022/09/03 01:44:51;;;;;;;3.60;1.90;;;13.30;99.90;;;;;;5102294;27;20249;-68
2022/09/03 01:47:31;;;;;;;1.93;1.70;;;13.40;99.90;;;;;;5132260;27;20509;-68
2022/09/03 01:50:06;;;;;;;3.33;1.70;;;13.50;24.60;;;;;;5120854;27;20193;-68
2022/09/03 01:52:44;;;;;;;4.27;1.97;;;13.70;1.00;;;;;;5112080;27;20207;-68
2022/09/03 01:55:25;;;;;;;2.77;2.10;;;13.70;1.00;;;;;;5111502;27;20251;-68
2022/09/03 01:57:58;;;;;;;2.33;1.83;;;13.80;1.00;;;;;;5116513;27;20594;-68
2022/09/03 02:00:30;;;;;;;3.07;2.10;;;13.90;1.00;;;;;;5104729;27;20562;-68
2022/09/03 02:03:04;;;;;;;2.47;1.93;;;13.90;1.00;;;;;;5119640;27;20196;-68
2022/09/03 02:05:32;;;;;;;2.50;1.63;;;13.90;1.00;;;;;;5121339;27;20193;-68
2022/09/03 02:08:00;;;;;;;2.63;1.50;;;13.90;1.00;;;;;;5119597;27;20266;-68
2022/09/03 02:10:31;;;;;;;4.23;1.60;;;13.80;1.00;;;;;;5118327;27;20201;-68
2022/09/03 02:13:01;;;;;;;4.57;1.90;;;13.90;1.00;;;;;;5110770;27;20192;-68
2022/09/03 02:15:33;;;;;;;4.60;1.83;;;13.80;1.00;;;;;;5124253;27;20203;-68
2022/09/03 02:18:03;;;;;;;2.20;1.80;;;13.80;1.00;;;;;;5122871;27;20216;-68
2022/09/03 02:20:30;;;;;;;2.93;1.70;;;13.80;1.00;;;;;;5106212;28;20197;-68
2022/09/03 02:22:58;;;;;;;3.53;2.30;;;13.80;1.00;;;;;;5092761;28;20304;-68
2022/09/03 02:25:30;;;;;;;3.10;1.60;;;13.80;1.00;;;;;;5120732;27;20204;-68
2022/09/03 02:27:58;;;;;;;1.80;1.70;;;13.80;1.00;;;;;;5097683;28;20202;-68
2022/09/03 02:30:24;;;;;;;4.67;2.00;;;13.70;1.00;;;;;;5126877;27;20677;-68
2022/09/03 02:32:53;;;;;;;1.77;1.67;;;13.80;1.00;;;;;;5129088;27;20668;-68
2022/09/03 02:35:20;;;;;;;1.80;1.53;;;13.70;1.00;;;;;;5092346;28;20208;-68
2022/09/03 02:37:46;;;;;;;2.40;1.57;;;13.70;1.00;;;;;;5097775;28;20238;-68
2022/09/03 02:40:14;;;;;;;2.00;1.90;;;13.70;1.00;;;;;;5108585;28;20201;-68
2022/09/03 02:42:41;;;;;;;2.00;1.60;;;13.80;1.00;;;;;;5125260;28;20241;-68
2022/09/03 02:45:20;;;;;;;3.00;1.73;;;13.70;1.00;;;;;;5120291;28;20197;-68
2022/09/03 02:47:51;;;;;;;2.33;1.70;;;13.60;1.00;;;;;;5097084;28;20246;-68
2022/09/03 02:50:19;;;;;;;2.00;1.80;;;13.60;1.00;;;;;;5108153;28;20198;-68
2022/09/03 02:52:46;;;;;;;2.10;1.90;;;13.60;1.00;;;;;;5103812;28;20205;-68
2022/09/03 02:55:13;;;;;;;1.80;1.63;;;13.60;1.00;;;;;;5104975;28;20606;-68
2022/09/03 02:57:40;;;;;;;1.80;1.70;;;13.60;1.00;;;;;;5121742;28;20698;-68
2022/09/03 03:00:08;;;;;;;2.03;1.87;;;13.60;1.00;;;;;;5105942;28;20202;-68
2022/09/03 03:02:35;;;;;;;2.17;1.73;;;13.60;1.00;;;;;;5104546;28;20204;-68
2022/09/03 03:05:07;;;;;;;2.97;1.90;;;13.60;1.00;;;;;;5119056;28;20192;-68
2022/09/03 03:07:39;;;;;;;1.73;1.63;;;13.50;1.00;;;;;;5109068;28;20193;-69
2022/09/03 03:10:07;;;;;;;2.20;1.80;;;13.50;1.00;;;;;;5123769;28;20200;-68
2022/09/03 03:12:34;;;;;;;2.20;1.70;;;13.50;1.00;;;;;;5108435;28;20197;-68
2022/09/03 03:15:01;;;;;;;2.73;1.77;;;13.60;1.00;;;;;;5127040;27;20196;-68
2022/09/03 03:17:28;;;;;;;2.67;1.90;;;13.50;1.00;;;;;;5112759;28;20705;-68
2022/09/03 03:19:55;;;;;;;1.93;1.70;;;13.50;1.00;;;;;;5107502;27;20193;-68
2022/09/03 03:22:21;;;;;;;5.43;1.87;;;13.40;1.30;;;;;;5113747;27;20557;-68
2022/09/03 03:24:51;;;;;;;1.57;1.47;;;13.40;6.60;;;;;;5105252;27;20193;-68
2022/09/03 03:27:19;;;;;;;4.30;1.63;;;13.40;70.40;;;;;;5097084;28;20201;-68
2022/09/03 03:29:45;;;;;;;2.80;1.60;;;13.50;1.00;;;;;;5113617;27;20200;-68
2022/09/03 03:32:12;;;;;;;5.03;1.70;;;13.40;1.00;;;;;;5115323;27;20189;-68
2022/09/03 03:34:39;;;;;;;2.17;1.80;;;13.50;1.00;;;;;;5116363;27;20203;-68
2022/09/03 03:37:06;;;;;;;3.03;1.57;;;13.50;1.00;;;;;;5109769;27;20625;-68
2022/09/03 03:39:33;;;;;;;1.60;1.50;;;13.40;1.00;;;;;;5126469;27;20201;-67
2022/09/03 03:42:01;;;;;;;2.20;1.67;;;13.50;1.00;;;;;;5115181;28;20203;-68
2022/09/03 03:44:28;;;;;;;1.90;1.77;;;13.40;1.00;;;;;;5120349;27;20565;-69
2022/09/03 03:46:54;;;;;;;3.07;1.87;;;13.40;1.00;;;;;;5115535;28;20197;-68
2022/09/03 03:49:21;;;;;;;2.33;1.60;;;13.50;1.00;;;;;;5115849;27;20200;-69
2022/09/03 03:51:48;;;;;;;1.57;1.40;;;13.50;1.00;;;;;;5123069;27;20207;-69
2022/09/03 03:54:15;;;;;;;2.57;1.60;;;13.40;23.80;;;;;;5133570;27;20206;-69
2022/09/03 03:56:42;;;;;;;1.70;1.60;;;13.30;99.90;;;;;;5131775;27;20196;-69
2022/09/03 03:59:10;;;;;;;2.80;1.90;;;13.30;99.90;;;;;;5131440;27;20546;-69
2022/09/03 04:01:37;;;;;;;1.83;1.60;;;13.30;99.90;;;;;;5127868;27;20208;-69
2022/09/03 04:04:04;;;;;;;2.07;1.60;;;13.30;72.70;;;;;;5119271;27;20197;-69
2022/09/03 04:06:31;;;;;;;4.17;1.57;;;13.30;99.90;;;;;;5118952;27;20193;-69
2022/09/03 04:08:58;;;;;;;2.37;1.57;;;13.30;99.90;;;;;;5120974;27;20184;-69
2022/09/03 04:11:25;;;;;;;5.70;1.63;;;13.20;99.90;;;;;;5094617;28;20202;-69
2022/09/03 04:13:52;;;;;;;1.77;1.40;;;13.20;99.90;;;;;;5112553;27;20209;-69
2022/09/03 04:16:23;;;;;;;2.97;1.57;;;13.20;99.90;;;;;;5129969;27;20193;-68
2022/09/03 04:18:51;;;;;;;2.70;1.77;;;13.20;99.90;;;;;;5123532;27;20303;-68
2022/09/03 04:21:20;;;;;;;2.47;1.53;;;13.20;99.90;;;;;;5122585;27;20199;-68
2022/09/03 04:23:49;;;;;;;2.13;1.73;;;13.10;1.00;;;;;;5118556;27;20205;-68
2022/09/03 04:26:21;;;;;;;2.40;1.87;;;13.00;1.00;;;;;;5101761;28;20211;-71
2022/09/03 04:28:48;;;;;;;1.73;1.63;;;12.90;1.00;;;;;;5111047;27;20203;-72
2022/09/03 04:31:17;;;;;;;1.47;1.30;;;12.80;1.00;;;;;;5134871;27;20200;-72
2022/09/03 04:33:45;;;;;;;4.50;1.67;;;12.80;1.00;;;;;;5129973;27;20250;-70
2022/09/03 04:36:13;;;;;;;1.97;1.80;;;12.90;1.00;;;;;;5119583;27;20583;-72
2022/09/03 04:38:41;;;;;;;2.50;1.57;;;12.90;1.00;;;;;;5114253;28;20682;-71
2022/09/03 04:41:10;;;;;;;4.17;2.00;;;13.00;1.00;;;;;;5115472;27;20212;-71
2022/09/03 04:43:38;;;;;;;2.40;1.73;;;12.90;1.00;;;;;;5107528;27;20430;-71
2022/09/03 04:46:06;;;;;;;3.57;1.90;;;13.00;1.00;;;;;;5107371;27;20283;-71
2022/09/03 04:48:36;;;;;;;2.00;1.70;;;13.00;1.00;;;;;;5108959;27;20219;-71
2022/09/03 04:51:05;;;;;;;2.77;2.07;;;12.90;1.00;;;;;;5100093;27;20292;-70
2022/09/03 04:53:34;;;;;;;5.73;1.97;;;12.70;99.90;;;;;;5111345;27;20205;-71
2022/09/03 04:56:01;;;;;;;5.47;2.57;;;12.40;1.00;;;;;;5099345;28;20194;-70
2022/09/03 04:58:34;;;;;;;1.77;1.67;;;12.30;99.90;;;;;;5103159;27;20596;-70
2022/09/03 05:01:07;;;;;;;3.77;2.17;;;12.40;1.00;;;;;;5101923;28;20280;-70
2022/09/03 05:03:36;;;;;;;2.87;2.20;;;12.30;99.90;;;;;;5086951;28;20252;-70
2022/09/03 05:06:05;;;;;;;3.07;2.27;;;12.10;1.00;;;;;;5100497;27;20251;-70
2022/09/03 05:08:36;;;;;;;3.37;2.27;;;12.30;99.90;;;;;;5104375;27;20635;-71
2022/09/03 05:11:03;;;;;;;3.37;2.23;;;12.50;1.00;;;;;;5106416;28;20190;-71
2022/09/03 05:13:29;;;;;;;7.53;2.27;;;12.60;1.00;;;;;;5103581;27;20217;-70
2022/09/03 05:16:00;;;;;;;4.43;1.80;;;12.80;1.00;;;;;;5101870;27;20196;-71
2022/09/03 05:18:30;;;;;;;5.43;1.90;;;12.60;1.00;;;;;;5100228;27;20271;-70
2022/09/03 05:21:00;;;;;;;3.57;2.20;;;12.50;99.90;;;;;;5103659;28;20197;-71
2022/09/03 05:23:29;;;;;;;4.30;1.93;;;12.40;99.90;;;;;;5102190;28;20206;-70
2022/09/03 05:25:57;;;;;;;4.23;2.03;;;12.50;99.90;;;;;;5108599;27;20208;-71
2022/09/03 05:28:26;;;;;;;3.00;1.87;;;12.80;1.00;;;;;;5104692;27;20195;-71
2022/09/03 05:30:59;;;;;;;4.50;2.67;;;12.90;99.90;;;;;;5102451;27;20219;-70
2022/09/03 05:33:26;;;;;;;4.97;2.40;;;12.80;1.00;;;;;;5109543;27;20552;-71
2022/09/03 05:35:53;;;;;;;5.03;2.23;;;12.60;1.00;;;;;;5101899;27;20204;-74
2022/09/03 05:38:20;;;;;;;3.20;2.03;;;12.50;1.00;;;;;;5099508;27;20225;-71
2022/09/03 05:40:48;;;;;;;4.23;2.10;;;12.30;1.00;;;;;;5106745;27;20208;-71
2022/09/03 05:43:16;;;;;;;3.87;2.30;;;12.60;99.90;;;;;;5098526;28;20200;-71
2022/09/03 05:45:43;;;;;;;2.27;1.90;;;12.80;1.00;;;;;;5103245;28;20200;-71
2022/09/03 05:48:10;;;;;;;2.10;2.00;;;13.00;99.90;;;;;;5105620;27;20198;-71
2022/09/03 05:50:36;;;;;;;4.27;2.20;;;13.10;99.90;;;;;;5098684;28;20198;-72
2022/09/03 05:53:03;;;;;;;2.60;2.23;;;13.20;99.90;;;;;;5107890;27;20196;-71
2022/09/03 05:55:30;;;;;;;4.90;2.13;;;13.30;99.90;;;;;;5108895;27;20634;-71
2022/09/03 05:57:58;;;;;;;2.27;2.00;;;13.30;99.90;;;;;;5108703;27;20205;-73
2022/09/03 06:00:26;;;;;;;3.13;1.80;;;13.30;1.00;;;;;;5100044;27;20201;-72
2022/09/03 06:02:53;;;;;;;2.53;1.70;;;13.40;1.00;;;;;;5103516;27;20288;-72
2022/09/03 06:05:20;;;;;;;4.80;1.90;;;13.50;1.00;;;;;;5106238;27;20197;-73
2022/09/03 06:07:48;;;;;;;3.00;2.10;;;13.50;1.00;;;;;;5098018;28;20213;-72
2022/09/03 06:10:16;;;;;;;4.07;2.33;;;13.60;1.00;;;;;;5106244;28;20288;-72
2022/09/03 06:12:49;;;;;;;5.30;1.80;;;13.60;1.00;;;;;;5108623;27;20201;-72
2022/09/03 06:15:17;;;;;;;4.90;2.00;;;13.80;1.00;;;;;;5097253;28;20594;-72
2022/09/03 06:17:44;;;;;;;7.07;2.00;;;14.00;99.90;;;;;;5108557;27;20201;-72
2022/09/03 06:20:12;;;;;;;2.83;1.67;;;14.20;99.90;;;;;;5105422;27;20217;-70
2022/09/03 06:22:38;;;;;;;3.60;1.70;;;14.10;99.90;;;;;;5101667;28;20201;-70
2022/09/03 06:25:06;;;;;;;2.27;1.87;;;14.20;99.90;;;;;;5104452;28;20667;-71
2022/09/03 06:27:33;;;;;;;5.97;2.20;;;15.10;1.00;;;;;;5098657;28;20197;-71
2022/09/03 06:30:00;;;;;;;2.57;1.87;;;14.80;1.00;;;;;;5114968;27;20660;-71
2022/09/03 06:32:28;;;;;;;1.87;1.60;;;14.70;1.00;;;;;;5101341;28;20202;-71
2022/09/03 06:34:55;;;;;;;4.67;2.20;;;14.60;1.00;;;;;;5104132;28;20201;-71
2022/09/03 06:37:22;;;;;;;3.73;1.67;;;14.60;1.00;;;;;;5099634;28;20202;-71
2022/09/03 06:39:50;;;;;;;2.50;1.90;;;14.70;1.00;;;;;;5096575;28;20722;-71
2022/09/03 06:42:17;;;;;;;2.57;1.93;;;14.80;1.00;;;;;;5102654;28;20655;-71
2022/09/03 06:44:44;;;;;;;3.13;1.60;;;14.80;1.00;;;;;;5104030;28;20709;-71
2022/09/03 06:47:11;;;;;;;1.80;1.53;;;14.90;1.00;;;;;;5099225;28;20631;-71
2022/09/03 06:49:39;;;;;;;2.47;1.70;;;14.90;1.00;;;;;;5112176;28;20201;-71
2022/09/03 06:52:06;;;;;;;4.10;1.80;;;14.90;1.00;;;;;;5106012;28;20220;-71
2022/09/03 06:54:33;;;;;;;3.10;1.77;;;15.00;1.00;;;;;;5106661;27;20205;-71
2022/09/03 06:57:00;;;;;;;1.87;1.60;;;15.30;1.00;;;;;;5106765;28;20670;-71
2022/09/03 06:59:27;;;;;;;3.13;1.90;;;15.60;99.90;;;;;;5107798;28;20587;-71
2022/09/03 07:01:53;;;;;;;2.90;1.63;;;15.80;99.90;;;;;;5108038;27;20204;-68
2022/09/03 07:04:23;;;;;;;3.17;1.67;;;15.70;99.90;;;;;;5105096;27;20197;-67
2022/09/03 07:06:52;;;;;;;3.60;1.70;;;15.80;98.20;;;;;;5102610;27;20229;-71
2022/09/03 07:09:18;;;;;;;2.20;1.60;;;15.70;99.90;;;;;;5101015;28;20190;-68
2022/09/03 07:11:49;;;;;;;8.40;2.07;;;15.80;39.90;;;;;;5104958;27;20219;-68
2022/09/03 07:14:17;;;;;;;5.37;2.00;;;15.80;1.00;;;;;;5102430;28;20197;-68
2022/09/03 07:16:44;;;;;;;2.50;1.53;;;15.80;1.00;;;;;;5102343;28;20209;-68
2022/09/03 07:19:12;;;;;;;3.00;1.70;;;15.80;1.80;;;;;;5102070;28;20224;-68
2022/09/03 07:21:40;;;;;;;6.83;2.03;;;15.90;99.90;;;;;;5108264;28;20200;-68
2022/09/03 07:24:09;;;;;;;1.87;1.70;;;16.00;99.90;;;;;;5117534;27;21819;-68
2022/09/03 07:26:38;;;;;;;4.53;1.60;;;15.90;1.00;;;;;;5114572;27;20201;-68
2022/09/03 07:29:07;;;;;;;1.92;1.60;;;15.90;1.00;;;;;;5109279;27;20193;-68
2022/09/03 07:31:35;;;;;;;2.58;1.60;;;15.80;1.00;;;;;;5101313;28;20287;-68
2022/09/03 07:34:05;;;;;;;3.72;2.10;;;15.90;59.20;;;;;;5107609;28;20197;-68
2022/09/03 07:36:37;;;;;;;4.70;1.75;;;16.00;1.00;;;;;;5107227;28;20212;-68
2022/09/03 07:39:05;;;;;;;2.33;1.90;;;16.10;1.00;;;;;;5104237;27;20213;-68
2022/09/03 07:41:33;;;;;;;2.43;1.80;;;16.20;1.00;;;;;;5103228;27;20202;-68
2022/09/03 07:44:04;;;;;;;3.75;1.73;;;16.30;1.00;;;;;;5111909;27;20235;-68
2022/09/03 07:46:32;;;;;;;2.17;1.67;;;16.40;1.00;;;;;;5103762;28;20660;-68
2022/09/03 07:49:01;;;;;;;2.05;1.80;;;16.60;1.00;;;;;;5108643;27;20197;-68
2022/09/03 07:51:29;;;;;;;2.30;2.05;;;16.70;1.00;;;;;;5100651;28;20262;-68
2022/09/03 07:53:58;;;;;;;2.03;1.67;;;16.80;1.00;;;;;;5106193;27;20207;-68
2022/09/03 07:56:26;;;;;;;3.25;1.63;;;16.90;99.90;;;;;;5107337;28;20200;-68
2022/09/03 07:58:55;;;;;;;3.63;1.98;;;17.00;1.00;;;;;;5099681;28;20216;-68
2022/09/03 08:01:23;;;;;;;2.30;2.10;;;17.10;99.90;;;;;;5107385;28;20536;-68
2022/09/03 08:03:52;;;;;;;3.15;1.63;;;17.10;99.90;;;;;;5100780;28;20212;-68
2022/09/03 08:06:20;;;;;;;2.97;1.70;;;17.20;99.90;;;;;;5106596;28;20296;-68
2022/09/03 08:08:48;;;;;;;2.20;2.00;;;17.30;99.90;;;;;;5107096;27;20193;-68
2022/09/03 08:11:17;;;;;;;3.50;1.55;;;17.40;99.90;;;;;;5104079;28;20211;-68
2022/09/03 08:13:47;;;;;;;2.50;1.83;;;17.50;92.40;;;;;;5109718;27;20292;-68
2022/09/03 08:16:17;;;;;;;2.00;1.70;;;17.60;99.90;;;;;;5116253;27;20240;-68
2022/09/03 08:18:46;;;;;;;2.50;1.90;;;17.80;46.30;;;;;;5105933;27;20209;-68
2022/09/03 08:21:15;;;;;;;2.67;1.80;;;17.90;1.00;;;;;;5102676;28;20217;-68
2022/09/03 08:23:44;;;;;;;3.70;2.10;;;18.00;1.00;;;;;;5109701;27;20296;-68
2022/09/03 08:26:11;;;;;;;4.15;1.92;;;18.00;1.00;;;;;;5107453;28;20197;-68
2022/09/03 08:28:38;;;;;;;1.65;1.55;;;18.20;1.00;;;;;;5106218;27;20197;-70
2022/09/03 08:31:08;;;;;;;1.70;1.60;;;18.30;1.00;;;;;;5110022;27;20221;-68
2022/09/03 08:33:37;;;;;;;2.10;1.73;;;18.40;1.00;;;;;;5103324;28;20212;-68
2022/09/03 08:36:06;;;;;;;4.15;1.70;;;18.50;1.00;;;;;;5105034;27;20582;-68
2022/09/03 08:38:35;;;;;;;2.30;1.58;;;18.60;1.00;;;;;;5101800;28;20573;-68
2022/09/03 08:41:07;;;;;;;2.28;1.65;;;18.70;1.00;;;;;;5106493;27;20222;-67
2022/09/03 08:43:45;;;;;;;2.67;1.55;;;18.90;1.00;;;;;;5105533;28;20263;-68
2022/09/03 08:46:12;;;;;;;2.33;1.70;;;19.00;1.00;;;;;;5104234;27;20213;-68
2022/09/03 08:48:41;;;;;;;2.40;1.63;;;19.30;1.00;;;;;;5106465;27;20572;-68
2022/09/03 08:51:10;;;;;;;3.88;1.67;;;19.30;1.00;;;;;;5099736;28;20198;-68
2022/09/03 08:53:45;;;;;;;3.67;1.50;;;19.40;1.00;;;;;;5104591;27;20664;-68
2022/09/03 08:56:18;;;;;;;3.38;1.50;;;19.60;1.00;;;;;;5099109;28;20239;-68
2022/09/03 08:58:45;;;;;;;4.22;1.65;;;19.70;99.90;;;;;;5104279;27;20544;-68
2022/09/03 09:01:23;;;;;;;5.93;1.73;;;19.90;99.90;;;;;;5104565;28;20209;-68
2022/09/03 09:04:03;;;;;;;1.55;1.40;;;19.80;99.90;;;;;;5099654;27;20201;-68
2022/09/03 09:06:38;;;;;;;2.90;1.70;;;19.80;99.90;;;;;;5107453;27;20656;-68
2022/09/03 09:09:15;;;;;;;2.28;1.90;;;20.20;99.90;;;;;;5104561;28;20635;-68
2022/09/03 09:11:56;;;;;;;1.63;1.52;;;20.10;99.90;;;;;;5111023;27;20574;-68
2022/09/03 09:14:29;;;;;;;3.13;1.73;;;20.60;99.90;;;;;;5104409;27;20220;-68
2022/09/03 09:17:07;;;;;;;4.05;1.90;;;20.90;99.90;;;;;;5121532;27;20215;-69
2022/09/03 09:19:51;;;;;;;4.22;1.88;;;20.60;95.60;;;;;;5092881;28;20815;-68
2022/09/03 09:22:25;;;;;;;2.63;1.50;;;20.70;53.60;;;;;;5114848;27;20578;-69
2022/09/03 09:24:56;;;;;;;2.45;1.63;;;21.30;6.90;;;;;;5098397;28;20201;-69
2022/09/03 09:27:24;;;;;;;5.40;1.92;;;21.50;1.00;;;;;;5103904;28;20548;-68
2022/09/03 09:29:53;;;;;;;3.30;1.35;;;21.70;1.00;;;;;;5118206;27;20196;-68
2022/09/03 09:32:20;;;;;;;1.42;1.33;;;22.00;1.00;;;;;;5133533;27;20214;-68
2022/09/03 09:34:48;;;;;;;2.10;1.30;;;21.90;1.00;;;;;;5120401;27;20197;-68
2022/09/03 09:37:17;;;;;;;3.20;1.45;;;22.10;1.00;;;;;;5112062;28;20541;-69
2022/09/03 09:39:56;;;;;;;4.63;1.48;;;22.50;1.00;;;;;;5112300;28;20220;-69
2022/09/03 09:42:23;;;;;;;5.82;1.98;;;22.40;1.00;;;;;;5113168;28;20638;-69
2022/09/03 09:44:50;;;;;;;2.72;1.42;;;22.50;1.00;;;;;;5110635;27;20208;-69
2022/09/03 09:47:24;;;;;;;8.40;1.67;;;22.30;1.00;;;;;;5101798;28;20596;-69
2022/09/03 09:49:55;;;;;;;3.13;1.63;;;22.20;1.00;;;;;;5103976;27;20208;-68
2022/09/03 09:52:24;;;;;;;2.10;1.50;;;22.70;1.00;;;;;;5106578;28;20448;-71
2022/09/03 09:54:53;;;;;;;3.72;1.90;;;22.40;1.00;;;;;;5116981;27;20224;-68
2022/09/03 09:57:23;;;;;;;3.30;1.42;;;22.30;1.00;;;;;;5098138;28;20229;-69
2022/09/03 10:00:05;;;;;;;2.17;1.50;;;22.50;1.00;;;;;;5098833;28;20582;-69
2022/09/03 10:02:36;;;;;;;3.83;1.52;;;22.90;1.00;;;;;;5107615;27;20203;-69
2022/09/03 10:05:15;;;;;;;5.13;1.80;;;22.70;1.00;;;;;;5099245;28;20204;-68
2022/09/03 10:07:42;;;;;;;3.55;1.70;;;22.40;1.00;;;;;;5102927;28;20197;-69
2022/09/03 10:10:18;;;;;;;1.70;1.50;;;22.40;1.00;;;;;;5106148;28;20227;-69
2022/09/03 10:12:48;;;;;;;5.88;1.60;;;23.00;1.00;;;;;;5102505;28;20200;-69
2022/09/03 10:15:24;;;;;;;4.55;1.50;;;23.20;1.00;;;;;;5104691;27;20193;-69
2022/09/03 10:18:02;;;;;;;5.88;1.70;;;23.60;1.00;;;;;;5099982;28;20230;-69
2022/09/03 10:20:37;;;;;;;4.97;1.70;;;23.40;1.00;;;;;;5103746;27;20216;-69
2022/09/03 10:23:13;;;;;;;2.33;1.42;;;23.60;1.00;;;;;;5100118;28;20687;-69
2022/09/03 10:25:50;;;;;;;1.42;1.30;;;23.70;1.00;;;;;;5099008;28;20201;-69
2022/09/03 10:28:18;;;;;;;4.18;1.60;;;23.10;1.00;;;;;;5103795;28;20280;-69
2022/09/03 10:31:03;;;;;;;1.67;1.33;;;23.30;1.00;;;;;;5102952;28;20197;-69
2022/09/03 10:33:35;;;;;;;3.30;1.50;;;23.20;1.00;;;;;;5102685;28;20572;-70
2022/09/03 10:36:15;;;;;;;3.10;1.48;;;23.50;1.00;;;;;;5101891;28;20217;-69
2022/09/03 10:38:46;;;;;;;1.67;1.20;;;23.20;1.00;;;;;;5108297;28;20200;-69
2022/09/03 10:41:25;;;;;;;6.82;1.55;;;23.20;1.00;;;;;;5101374;28;20217;-69
2022/09/03 10:44:09;;;;;;;2.95;1.50;;;23.40;1.00;;;;;;5111682;28;20215;-69
2022/09/03 10:46:45;;;;;;;3.20;1.50;;;23.60;1.00;;;;;;5101848;28;20198;-69
2022/09/03 10:49:34;;;;;;;5.20;1.40;;;23.70;1.00;;;;;;5099331;28;20555;-69
2022/09/03 10:52:09;;;;;;;2.08;1.10;;;24.10;1.00;;;;;;5096826;28;20208;-69
2022/09/03 10:54:53;;;;;;;5.78;1.40;;;23.70;1.00;;;;;;5104821;28;20202;-69
2022/09/03 10:57:31;;;;;;;1.67;1.58;;;24.00;1.00;;;;;;5082879;28;20200;-69
2022/09/03 11:00:07;;;;;;;2.65;1.50;;;23.60;1.00;;;;;;5099259;28;20220;-69
2022/09/03 11:03:17;;;;;;;2.83;1.40;;;23.70;1.00;;;;;;5101521;28;20608;-69
2022/09/03 11:05:56;;;;;;;3.10;1.30;;;23.90;1.00;;;;;;5077931;28;20197;-69
2022/09/03 11:08:30;;;;;;;2.28;1.35;;;24.50;1.00;;;;;;5097935;28;20566;-70
2022/09/03 11:11:04;;;;;;;2.80;1.80;;;24.50;1.00;;;;;;5100571;28;20288;-70
2022/09/03 11:13:35;;;;;;;1.75;1.33;;;24.70;1.00;;;;;;5109051;28;20203;-70
2022/09/03 11:16:06;;;;;;;1.77;1.38;;;25.20;1.00;;;;;;5098059;28;20643;-70
2022/09/03 11:18:38;;;;;;;1.80;1.23;;;25.00;1.00;;;;;;5103909;28;20205;-70
2022/09/03 11:21:10;;;;;;;3.08;1.58;;;24.50;1.00;;;;;;5096312;28;20217;-70
2022/09/03 11:23:43;;;;;;;3.00;1.67;;;24.20;1.00;;;;;;5108993;28;20691;-70
2022/09/03 11:26:12;;;;;;;2.95;1.27;;;24.00;1.00;;;;;;5096058;28;20205;-72
2022/09/03 11:28:46;;;;;;;2.88;1.52;;;24.10;1.00;;;;;;5101049;28;20237;-72
2022/09/03 11:31:22;;;;;;;1.48;1.23;;;24.20;1.00;;;;;;5097070;28;20240;-71
2022/09/03 11:33:53;;;;;;;3.15;1.30;;;24.80;1.00;;;;;;5109064;28;20728;-69
2022/09/03 11:36:29;;;;;;;2.60;1.20;;;24.10;1.00;;;;;;5105417;28;20205;-69
2022/09/03 11:38:59;;;;;;;2.80;1.27;;;23.60;1.00;;;;;;5123962;27;20205;-71
2022/09/03 11:41:27;;;;;;;1.35;1.25;;;24.00;1.00;;;;;;5132227;27;20220;-70
2022/09/03 11:43:54;;;;;;;4.85;1.90;;;25.00;1.00;;;;;;5119991;27;20212;-71
2022/09/03 11:46:30;;;;;;;2.03;1.50;;;25.10;1.00;;;;;;5105471;28;20209;-71
2022/09/03 11:49:10;;;;;;;1.63;1.40;;;25.00;1.00;;;;;;5104514;27;20192;-71
2022/09/03 11:51:38;;;;;;;3.38;1.50;;;24.50;1.00;;;;;;5101399;28;20564;-71
2022/09/03 11:54:24;;;;;;;2.10;1.20;;;24.50;1.00;;;;;;5109426;28;20197;-71
2022/09/03 11:57:05;;;;;;;2.33;1.70;;;25.00;1.00;;;;;;5095088;28;20200;-72
2022/09/03 11:59:32;;;;;;;3.90;1.90;;;24.90;1.00;;;;;;5116646;27;20264;-71
2022/09/03 12:02:04;;;;;;;2.28;1.90;;;25.10;1.00;;;;;;5112486;28;20221;-72
2022/09/03 12:04:39;;;;;;;1.40;1.27;;;24.50;1.00;;;;;;5108697;27;20384;-72
2022/09/03 12:07:25;;;;;;;1.60;1.35;;;24.50;1.00;;;;;;5101907;28;20209;-73
2022/09/03 12:10:09;;;;;;;2.13;1.35;;;25.00;1.00;;;;;;5112411;27;20197;-72
2022/09/03 12:12:52;;;;;;;2.13;1.77;;;25.20;1.00;;;;;;5103552;27;20202;-72
2022/09/03 12:15:34;;;;;;;1.42;1.27;;;25.70;1.00;;;;;;5105573;27;20246;-72
2022/09/03 12:20:46;;;;;;;5.00;1.88;;;24.50;1.00;;;;;;5105366;28;20708;-72
2022/09/03 12:23:15;;;;;;;2.38;1.55;;;24.20;1.00;;;;;;5101463;27;20666;-72
2022/09/03 12:25:47;;;;;;;2.58;1.25;;;24.50;1.00;;;;;;5105515;28;20205;-74
2022/09/03 12:28:22;;;;;;;2.60;1.25;;;24.40;1.00;;;;;;5101253;27;20217;-72
2022/09/03 12:30:52;;;;;;;2.25;1.40;;;24.70;1.00;;;;;;5111376;27;20197;-72
2022/09/03 12:33:20;;;;;;;2.20;1.20;;;24.80;99.90;;;;;;5107288;28;20193;-72
2022/09/03 12:35:56;;;;;;;3.10;1.50;;;24.70;99.90;;;;;;5105852;27;20197;-73
2022/09/03 12:38:24;;;;;;;2.03;1.00;;;24.50;99.90;;;;;;5109171;27;20193;-72
2022/09/03 12:40:53;;;;;;;1.33;1.23;;;24.80;99.90;;;;;;5098944;28;20249;-72
2022/09/03 12:43:21;;;;;;;3.30;1.10;;;24.40;99.90;;;;;;5100958;27;20197;-72
2022/09/03 12:45:50;;;;;;;1.77;1.08;;;24.50;99.90;;;;;;5107139;27;20205;-71
2022/09/03 12:48:19;;;;;;;1.17;1.08;;;24.50;99.90;;;;;;5103505;28;20201;-72
2022/09/03 12:50:47;;;;;;;2.33;1.20;;;24.70;99.90;;;;;;5108697;27;20201;-72
2022/09/03 12:53:19;;;;;;;1.02;1.02;;;24.60;99.90;;;;;;5101807;28;20213;-73
2022/09/03 12:55:49;;;;;;;2.83;1.35;;;24.60;99.90;;;;;;5097354;28;20655;-73
2022/09/03 12:58:22;;;;;;;1.38;1.20;;;24.40;99.90;;;;;;5100713;27;20201;-73
2022/09/03 13:00:56;;;;;;;1.58;1.48;;;24.50;99.90;;;;;;5099533;28;20456;-74
2022/09/03 13:03:28;;;;;;;1.52;1.30;;;24.40;99.90;;;;;;5103714;27;20498;-73
2022/09/03 13:05:58;;;;;;;2.50;1.50;;;24.20;99.90;;;;;;5107592;27;20282;-74
2022/09/03 13:08:29;;;;;;;1.50;1.40;;;24.40;99.90;;;;;;5102285;28;20193;-74
2022/09/03 13:10:59;;;;;;;1.88;1.48;;;24.40;99.90;;;;;;5098887;27;20201;-74
2022/09/03 13:13:29;;;;;;;3.10;1.35;;;24.10;99.90;;;;;;5098351;28;20201;-74
2022/09/03 13:16:23;;;;;;;2.75;1.17;;;24.20;99.90;;;;;;5101223;28;20209;-74
2022/09/03 13:19:00;;;;;;;2.50;1.05;;;24.50;99.90;;;;;;5098823;27;20205;-73